createdAt,value
2022-11-16T00:02:41.228Z,3.43
2022-11-16T00:05:28.681Z,2.90
2022-11-16T00:08:15.671Z,3.07
2022-11-16T00:11:10.753Z,3.90
2022-11-16T00:13:57.815Z,3.20
2022-11-16T00:16:44.885Z,3.00
2022-11-16T00:19:31.938Z,3.10
2022-11-16T00:22:18.901Z,3.00
2022-11-16T00:25:06.489Z,3.40
2022-11-16T00:27:53.461Z,3.00
2022-11-16T00:30:40.577Z,3.57
2022-11-16T00:33:27.602Z,3.57
2022-11-16T00:36:15.175Z,4.07
2022-11-16T00:39:02.494Z,3.40
2022-11-16T00:41:49.994Z,3.90
2022-11-16T00:44:36.973Z,3.60
2022-11-16T00:47:24.026Z,3.50
2022-11-16T00:50:10.959Z,3.73
2022-11-16T00:52:57.964Z,3.50
2022-11-16T00:55:46.586Z,2.83
2022-11-16T00:58:33.807Z,3.50
2022-11-16T01:01:20.976Z,3.63
2022-11-16T01:04:08.117Z,3.57
2022-11-16T01:06:55.108Z,3.53
2022-11-16T01:09:42.105Z,3.70
2022-11-16T01:12:29.323Z,3.50
2022-11-16T01:15:18.025Z,3.37
2022-11-16T01:18:05.048Z,3.07
2022-11-16T01:20:53.691Z,2.83
2022-11-16T01:23:40.722Z,3.40
2022-11-16T01:26:27.988Z,3.33
2022-11-16T01:29:14.957Z,3.33
2022-11-16T01:32:01.976Z,3.53
2022-11-16T01:34:49.651Z,3.13
2022-11-16T01:37:36.648Z,3.50
2022-11-16T01:40:23.565Z,3.37
2022-11-16T01:43:28.845Z,3.20
2022-11-16T01:46:15.809Z,3.43
2022-11-16T01:49:10.722Z,4.07
2022-11-16T01:52:12.074Z,3.60
2022-11-16T01:55:00.282Z,3.63
2022-11-16T01:57:48.549Z,3.57
2022-11-16T02:00:35.520Z,3.60
2022-11-16T02:03:22.612Z,3.63
2022-11-16T02:06:43.101Z,3.70
2022-11-16T02:09:59.138Z,3.70
2022-11-16T02:13:07.911Z,3.57
2022-11-16T02:16:33.057Z,3.77
2022-11-16T02:19:38.215Z,3.60
2022-11-16T02:22:59.245Z,4.10
2022-11-16T02:25:49.153Z,4.00
2022-11-16T02:29:11.600Z,3.40
2022-11-16T02:32:20.192Z,3.70
2022-11-16T02:35:07.507Z,4.27
2022-11-16T02:37:59.997Z,4.10
2022-11-16T02:40:51.503Z,3.80
2022-11-16T02:43:45.743Z,4.13
2022-11-16T02:46:38.298Z,4.43
2022-11-16T02:49:28.256Z,4.60
2022-11-16T02:52:16.576Z,4.87
2022-11-16T02:55:03.846Z,4.20
2022-11-16T02:57:59.151Z,5.03
2022-11-16T03:01:13.037Z,4.93
2022-11-16T03:04:34.045Z,4.60
2022-11-16T03:07:26.453Z,5.03
2022-11-16T03:10:35.418Z,5.30
2022-11-16T03:13:24.912Z,5.53
2022-11-16T03:16:20.960Z,5.53
2022-11-16T03:19:13.282Z,5.83
2022-11-16T03:22:09.544Z,6.00
2022-11-16T03:24:57.263Z,6.10
2022-11-16T03:28:03.774Z,6.60
2022-11-16T03:31:04.359Z,6.37
2022-11-16T03:33:56.235Z,6.97
2022-11-16T03:36:47.280Z,6.53
2022-11-16T03:39:39.020Z,6.13
2022-11-16T03:42:27.572Z,7.47
2022-11-16T03:45:14.548Z,6.20
2022-11-16T03:48:01.546Z,6.30
2022-11-16T03:50:52.129Z,6.70
2022-11-16T03:53:39.579Z,6.63
2022-11-16T03:56:27.147Z,7.13
2022-11-16T03:59:14.165Z,6.50
2022-11-16T04:02:01.072Z,7.17
2022-11-16T04:05:06.708Z,7.00
2022-11-16T04:08:12.542Z,6.60
2022-11-16T04:11:18.260Z,6.90
2022-11-16T04:14:24.460Z,6.83
2022-11-16T04:17:34.680Z,6.60
2022-11-16T04:20:40.147Z,7.87
2022-11-16T04:23:45.890Z,7.67
2022-11-16T04:26:52.649Z,7.57
2022-11-16T04:29:40.422Z,7.03
2022-11-16T04:32:46.307Z,8.27
2022-11-16T04:35:51.920Z,8.00
2022-11-16T04:38:38.904Z,7.40
2022-11-16T04:41:55.505Z,8.37
2022-11-16T04:45:01.287Z,8.40
2022-11-16T04:47:49.658Z,8.47
2022-11-16T04:50:37.364Z,8.60
2022-11-16T04:53:27.126Z,9.13
2022-11-16T04:56:14.165Z,7.63
2022-11-16T04:59:01.180Z,7.27
2022-11-16T05:02:06.712Z,7.83
2022-11-16T05:04:53.709Z,7.40
2022-11-16T05:07:40.819Z,7.90
2022-11-16T05:10:27.943Z,8.80
2022-11-16T05:13:14.953Z,8.13
2022-11-16T05:16:01.876Z,8.70
2022-11-16T05:19:08.851Z,8.57
2022-11-16T05:21:55.839Z,8.67
2022-11-16T05:24:42.885Z,9.13
2022-11-16T05:27:30.305Z,9.80
2022-11-16T05:30:17.551Z,9.50
2022-11-16T05:33:04.547Z,10.23
2022-11-16T05:35:51.880Z,10.33
2022-11-16T05:38:38.836Z,10.00
2022-11-16T05:41:25.826Z,10.33
2022-11-16T05:44:14.004Z,10.67
2022-11-16T05:47:01.608Z,10.33
2022-11-16T05:49:48.609Z,10.70
2022-11-16T05:52:35.604Z,10.40
2022-11-16T05:55:22.769Z,10.80
2022-11-16T05:58:09.763Z,10.10
2022-11-16T06:00:57.968Z,10.80
2022-11-16T06:03:44.943Z,9.93
2022-11-16T06:06:31.996Z,11.40
2022-11-16T06:09:19.194Z,10.80
2022-11-16T06:12:06.257Z,11.23
2022-11-16T06:14:53.244Z,11.33
2022-11-16T06:17:40.221Z,11.17
2022-11-16T06:20:27.207Z,11.03
2022-11-16T06:23:14.266Z,12.07
2022-11-16T06:26:02.000Z,11.47
2022-11-16T06:28:48.986Z,11.47
2022-11-16T06:31:36.031Z,11.00
2022-11-16T06:34:23.049Z,11.73
2022-11-16T06:37:10.068Z,11.87
2022-11-16T06:39:57.066Z,11.70
2022-11-16T06:42:44.053Z,11.07
2022-11-16T06:45:31.105Z,12.50
2022-11-16T06:48:18.821Z,12.40
2022-11-16T06:51:06.075Z,12.87
2022-11-16T06:53:53.012Z,13.10
2022-11-16T06:56:40.029Z,12.07
2022-11-16T06:59:26.998Z,13.47
2022-11-16T07:02:14.059Z,13.30
2022-11-16T07:05:03.705Z,14.00
2022-11-16T07:07:55.641Z,13.07
2022-11-16T07:10:42.595Z,12.53
2022-11-16T07:13:31.982Z,13.57
2022-11-16T07:16:18.975Z,12.50
2022-11-16T07:19:06.335Z,13.70
2022-11-16T07:21:53.369Z,14.07
2022-11-16T07:24:40.334Z,12.87
2022-11-16T07:27:27.549Z,12.57
2022-11-16T07:30:14.935Z,11.83
2022-11-16T07:33:02.215Z,12.23
2022-11-16T07:35:50.849Z,12.87
2022-11-16T07:38:39.223Z,13.17
2022-11-16T07:41:26.207Z,13.03
2022-11-16T07:44:13.266Z,12.70
2022-11-16T07:47:01.882Z,11.43
2022-11-16T07:49:49.041Z,11.23
2022-11-16T07:52:35.933Z,11.47
2022-11-16T07:55:25.176Z,11.37
2022-11-16T07:58:12.091Z,11.00
2022-11-16T08:01:15.742Z,10.33
2022-11-16T08:04:03.007Z,9.33
2022-11-16T08:06:52.081Z,9.93
2022-11-16T08:09:39.560Z,11.27
2022-11-16T08:12:26.622Z,9.97
2022-11-16T08:15:14.217Z,10.20
2022-11-16T08:18:01.186Z,10.83
2022-11-16T08:20:48.241Z,9.67
2022-11-16T08:23:35.359Z,9.93
2022-11-16T08:26:22.943Z,11.23
2022-11-16T08:29:09.901Z,10.73
2022-11-16T08:31:56.973Z,10.13
2022-11-16T08:34:44.171Z,11.57
2022-11-16T08:37:32.190Z,10.17
2022-11-16T08:40:19.242Z,11.37
2022-11-16T08:43:06.247Z,9.83
2022-11-16T08:45:57.500Z,10.30
2022-11-16T08:48:44.885Z,10.60
2022-11-16T08:51:32.044Z,10.00
2022-11-16T08:54:19.058Z,10.67
2022-11-16T08:57:05.992Z,10.37
2022-11-16T08:59:52.985Z,10.37
2022-11-16T09:02:39.904Z,10.40
2022-11-16T09:05:26.880Z,11.37
2022-11-16T09:08:13.901Z,11.93
2022-11-16T09:11:04.948Z,12.50
2022-11-16T09:13:55.025Z,11.20
2022-11-16T09:16:41.979Z,12.87
2022-11-16T09:19:28.966Z,13.10
2022-11-16T09:22:15.991Z,12.27
2022-11-16T09:25:03.057Z,12.13
2022-11-16T09:27:50.011Z,12.93
2022-11-16T09:30:37.622Z,14.47
2022-11-16T09:33:24.612Z,13.10
2022-11-16T09:36:11.570Z,14.70
2022-11-16T09:39:29.949Z,14.50
2022-11-16T09:42:43.304Z,15.97
2022-11-16T09:45:30.218Z,17.13
2022-11-16T09:48:18.852Z,17.97
2022-11-16T09:51:10.180Z,18.37
2022-11-16T09:54:06.077Z,19.27
2022-11-16T09:56:58.064Z,18.70
2022-11-16T09:59:51.938Z,19.03
2022-11-16T10:02:45.129Z,20.07
2022-11-16T10:06:04.438Z,19.30
2022-11-16T10:08:53.567Z,19.70
2022-11-16T10:12:06.814Z,20.10
2022-11-16T10:15:26.437Z,21.30
2022-11-16T10:18:32.167Z,20.47
2022-11-16T10:21:27.973Z,21.13
2022-11-16T10:24:42.819Z,22.27
2022-11-16T10:27:42.716Z,23.47
2022-11-16T10:30:35.564Z,24.77
2022-11-16T10:33:25.519Z,23.93
2022-11-16T10:36:16.487Z,25.80
2022-11-16T10:39:10.380Z,25.30
2022-11-16T10:42:07.504Z,26.50
2022-11-16T10:45:12.507Z,25.53
2022-11-16T10:48:31.829Z,25.83
2022-11-16T10:51:18.912Z,24.77
2022-11-16T10:54:13.570Z,25.00
2022-11-16T10:57:05.888Z,25.40
2022-11-16T10:59:59.055Z,26.53
2022-11-16T11:02:49.139Z,26.37
2022-11-16T11:05:36.934Z,26.10
2022-11-16T11:08:32.756Z,27.40
2022-11-16T11:11:42.724Z,26.90
2022-11-16T11:14:33.796Z,25.90
2022-11-16T11:17:26.680Z,27.53
2022-11-16T11:20:16.883Z,27.07
2022-11-16T11:23:13.282Z,27.50
2022-11-16T11:26:01.170Z,28.90
2022-11-16T11:28:50.050Z,27.97
2022-11-16T11:31:45.222Z,28.10
2022-11-16T11:34:41.875Z,28.07
2022-11-16T11:37:36.655Z,28.63
2022-11-16T11:40:27.852Z,27.03
2022-11-16T11:43:23.920Z,28.17
2022-11-16T11:46:23.473Z,26.60
2022-11-16T11:49:18.841Z,28.70
2022-11-16T11:52:21.535Z,27.90
2022-11-16T11:55:15.079Z,28.10
2022-11-16T11:58:04.860Z,26.87
2022-11-16T12:01:04.936Z,27.97
2022-11-16T12:04:16.594Z,29.50
2022-11-16T12:07:24.419Z,28.97
2022-11-16T12:10:22.060Z,27.30
2022-11-16T12:13:54.502Z,27.20
2022-11-16T12:17:05.492Z,28.47
2022-11-16T12:20:02.040Z,28.27
2022-11-16T12:23:17.188Z,26.43
2022-11-16T12:26:14.953Z,26.50
2022-11-16T12:29:28.224Z,26.10
2022-11-16T12:32:30.256Z,27.80
2022-11-16T12:35:49.219Z,27.07
2022-11-16T12:38:45.128Z,27.33
2022-11-16T12:41:39.431Z,27.27
2022-11-16T12:44:47.623Z,28.47
2022-11-16T12:48:05.365Z,27.43
2022-11-16T12:51:30.500Z,28.30
2022-11-16T12:54:57.961Z,25.73
2022-11-16T12:58:13.284Z,27.97
2022-11-16T13:01:21.703Z,27.30
2022-11-16T13:04:24.888Z,27.47
2022-11-16T13:07:38.987Z,27.13
2022-11-16T13:10:33.864Z,28.67
2022-11-16T13:13:36.312Z,26.47
2022-11-16T13:16:24.921Z,26.23
2022-11-16T13:19:15.021Z,28.00
2022-11-16T13:22:09.800Z,25.17
2022-11-16T13:25:24.677Z,26.37
2022-11-16T13:28:33.566Z,26.10
2022-11-16T13:31:23.787Z,24.30
2022-11-16T13:34:26.312Z,24.10
2022-11-16T13:37:38.261Z,23.87
2022-11-16T13:40:30.672Z,22.73
2022-11-16T13:43:19.108Z,21.97
2022-11-16T13:46:06.112Z,24.27
2022-11-16T13:48:53.761Z,23.07
2022-11-16T13:51:52.159Z,21.03
2022-11-16T13:54:45.760Z,21.63
2022-11-16T13:57:34.786Z,21.40
2022-11-16T14:00:26.399Z,21.70
2022-11-16T14:03:16.486Z,20.37
2022-11-16T14:06:03.753Z,20.53
2022-11-16T14:08:58.191Z,20.87
2022-11-16T14:11:45.155Z,20.93
2022-11-16T14:15:03.945Z,21.27
2022-11-16T14:17:54.645Z,19.57
2022-11-16T14:20:51.146Z,20.00
2022-11-16T14:23:59.782Z,21.17
2022-11-16T14:27:01.859Z,18.47
2022-11-16T14:30:25.015Z,18.73
2022-11-16T14:33:23.456Z,20.33
2022-11-16T14:36:10.935Z,18.97
2022-11-16T14:39:17.663Z,22.03
2022-11-16T14:42:17.973Z,20.90
2022-11-16T14:45:12.203Z,22.23
2022-11-16T14:48:03.721Z,23.60
2022-11-16T14:51:10.478Z,23.93
2022-11-16T14:54:33.753Z,22.90
2022-11-16T14:57:23.462Z,22.20
2022-11-16T15:00:23.094Z,22.33
2022-11-16T15:03:12.438Z,21.83
2022-11-16T15:06:00.935Z,20.50
2022-11-16T15:09:03.233Z,21.50
2022-11-16T15:12:10.637Z,20.30
2022-11-16T15:15:06.680Z,20.80
2022-11-16T15:17:59.655Z,22.57
2022-11-16T15:20:51.992Z,20.57
2022-11-16T15:24:02.147Z,21.30
2022-11-16T15:26:58.281Z,21.87
2022-11-16T15:29:45.383Z,21.37
2022-11-16T15:32:38.337Z,21.00
2022-11-16T15:35:31.982Z,21.50
2022-11-16T15:38:26.173Z,22.17
2022-11-16T15:41:13.365Z,22.27
2022-11-16T15:44:14.012Z,21.80
2022-11-16T15:47:03.488Z,22.73
2022-11-16T15:49:53.150Z,21.67
2022-11-16T15:52:45.851Z,22.30
2022-11-16T15:55:39.306Z,22.17
2022-11-16T15:58:31.115Z,23.50
2022-11-16T16:01:19.998Z,23.97
2022-11-16T16:04:08.113Z,23.43
2022-11-16T16:06:57.715Z,23.90
2022-11-16T16:09:45.404Z,24.87
2022-11-16T16:12:32.378Z,24.70
2022-11-16T16:15:29.943Z,25.60
2022-11-16T16:18:39.404Z,25.70
2022-11-16T16:21:39.547Z,25.27
2022-11-16T16:24:46.787Z,25.53
2022-11-16T16:27:40.055Z,25.53
2022-11-16T16:30:28.855Z,26.33
2022-11-16T16:33:19.283Z,26.80
2022-11-16T16:36:07.152Z,26.63
2022-11-16T16:38:54.549Z,27.77
2022-11-16T16:41:41.563Z,28.40
2022-11-16T16:44:28.561Z,27.47
2022-11-16T16:47:16.552Z,27.23
2022-11-16T16:50:04.223Z,28.23
2022-11-16T16:52:51.280Z,28.37
2022-11-16T16:55:38.555Z,28.30
2022-11-16T16:58:25.484Z,28.67
2022-11-16T17:01:12.691Z,29.10
2022-11-16T17:03:59.740Z,28.77
2022-11-16T17:06:48.050Z,29.67
2022-11-16T17:09:35.101Z,28.87
2022-11-16T17:12:22.141Z,28.80
2022-11-16T17:15:09.386Z,28.83
2022-11-16T17:17:58.127Z,30.80
2022-11-16T17:20:45.625Z,30.73
2022-11-16T17:23:33.475Z,30.03
2022-11-16T17:26:21.015Z,30.07
2022-11-16T17:29:08.219Z,29.07
2022-11-16T17:31:55.221Z,29.13
2022-11-16T17:34:42.160Z,28.77
2022-11-16T17:37:29.376Z,32.00
2022-11-16T17:40:16.423Z,30.13
2022-11-16T17:43:03.415Z,29.87
2022-11-16T17:45:50.460Z,29.90
2022-11-16T17:48:38.884Z,30.57
2022-11-16T17:51:26.572Z,30.50
2022-11-16T17:54:14.185Z,29.37
2022-11-16T17:57:01.216Z,31.90
2022-11-16T17:59:48.271Z,30.43
2022-11-16T18:02:35.185Z,30.23
2022-11-16T18:05:22.163Z,29.97
2022-11-16T18:08:09.176Z,30.90
2022-11-16T18:10:56.345Z,35.20
2022-11-16T18:13:44.274Z,45.13
2022-11-16T18:16:33.458Z,29.97
2022-11-16T18:19:20.799Z,32.60
2022-11-16T18:22:07.800Z,30.77
2022-11-16T18:24:54.700Z,29.23
2022-11-16T18:27:41.707Z,30.50
2022-11-16T18:30:28.700Z,29.07
2022-11-16T18:33:16.536Z,30.37
2022-11-16T18:36:05.150Z,29.33
2022-11-16T18:38:52.475Z,28.20
2022-11-16T18:41:44.693Z,28.67
2022-11-16T18:44:33.906Z,27.40
2022-11-16T18:47:20.826Z,27.77
2022-11-16T18:50:18.981Z,28.53
2022-11-16T18:53:07.187Z,28.17
2022-11-16T18:55:57.858Z,33.27
2022-11-16T18:58:53.315Z,28.30
2022-11-16T19:01:40.913Z,26.63
2022-11-16T19:04:28.696Z,28.43
2022-11-16T19:07:15.843Z,30.23
2022-11-16T19:10:02.915Z,28.67
2022-11-16T19:12:49.855Z,27.40
2022-11-16T19:15:36.841Z,28.80
2022-11-16T19:18:23.870Z,30.90
2022-11-16T19:21:13.720Z,27.87
2022-11-16T19:24:00.804Z,26.83
2022-11-16T19:26:47.921Z,28.33
2022-11-16T19:29:34.889Z,26.50
2022-11-16T19:32:21.869Z,25.87
2022-11-16T19:35:11.061Z,27.90
2022-11-16T19:37:58.536Z,27.60
2022-11-16T19:40:45.599Z,27.63
2022-11-16T19:43:33.336Z,27.70
2022-11-16T19:46:21.547Z,25.27
2022-11-16T19:49:10.282Z,38.87
2022-11-16T19:51:57.314Z,29.47
2022-11-16T19:54:44.280Z,60.20
2022-11-16T19:57:31.282Z,50.83
2022-11-16T20:00:18.396Z,25.93
2022-11-16T20:03:05.408Z,30.57
2022-11-16T20:05:52.389Z,25.80
2022-11-16T20:08:41.071Z,25.27
2022-11-16T20:11:30.808Z,25.20
2022-11-16T20:14:18.069Z,24.67
2022-11-16T20:17:05.316Z,23.23
2022-11-16T20:19:52.200Z,26.33
2022-11-16T20:22:39.141Z,24.10
2022-11-16T20:25:26.103Z,25.37
2022-11-16T20:28:13.100Z,25.80
2022-11-16T20:31:01.160Z,23.87
2022-11-16T20:33:56.365Z,24.57
2022-11-16T20:36:45.936Z,24.57
2022-11-16T20:39:32.896Z,23.90
2022-11-16T20:42:19.901Z,22.93
2022-11-16T20:45:07.712Z,22.23
2022-11-16T20:47:54.736Z,22.60
2022-11-16T20:50:41.697Z,23.17
2022-11-16T20:53:28.704Z,21.10
2022-11-16T20:56:17.653Z,22.17
2022-11-16T20:59:05.420Z,22.07
2022-11-16T21:01:55.282Z,20.73
2022-11-16T21:04:42.321Z,20.30
2022-11-16T21:07:29.341Z,19.17
2022-11-16T21:10:19.892Z,19.73
2022-11-16T21:13:31.175Z,17.53
2022-11-16T21:16:18.176Z,18.07
2022-11-16T21:19:05.660Z,17.80
2022-11-16T21:21:52.713Z,15.97
2022-11-16T21:24:39.675Z,15.77
2022-11-16T21:27:26.667Z,16.10
2022-11-16T21:30:14.193Z,14.77
2022-11-16T21:33:01.276Z,14.30
2022-11-16T21:35:48.280Z,13.80
2022-11-16T21:38:35.343Z,12.60
2022-11-16T21:41:24.150Z,12.83
2022-11-16T21:44:11.185Z,12.27
2022-11-16T21:46:58.109Z,12.03
2022-11-16T21:50:09.836Z,12.50
2022-11-16T21:52:52.118Z,11.70
2022-11-16T21:55:39.122Z,12.40
2022-11-16T21:58:26.403Z,11.97
2022-11-16T22:01:16.437Z,11.93
2022-11-16T22:04:22.083Z,12.93
2022-11-16T22:07:32.798Z,12.23
2022-11-16T22:10:19.942Z,12.13
2022-11-16T22:13:06.873Z,12.23
2022-11-16T22:15:53.875Z,12.07
2022-11-16T22:18:41.351Z,12.40
2022-11-16T22:21:28.298Z,12.50
2022-11-16T22:24:15.347Z,13.07
2022-11-16T22:27:02.404Z,12.13
2022-11-16T22:29:49.419Z,12.30
2022-11-16T22:32:36.392Z,12.13
2022-11-16T22:35:23.383Z,12.33
2022-11-16T22:38:11.023Z,12.53
2022-11-16T22:40:58.230Z,12.03
2022-11-16T22:43:45.132Z,12.37
2022-11-16T22:46:32.144Z,12.30
2022-11-16T22:49:19.461Z,12.20
2022-11-16T22:52:06.459Z,12.57
2022-11-16T22:54:53.776Z,12.10
2022-11-16T22:57:40.675Z,12.07
2022-11-16T23:00:27.685Z,12.07
2022-11-16T23:03:14.626Z,13.50
2022-11-16T23:06:02.037Z,13.07
2022-11-16T23:08:49.004Z,12.07
2022-11-16T23:11:54.613Z,12.97
2022-11-16T23:15:16.541Z,13.27
2022-11-16T23:18:03.688Z,12.33
2022-11-16T23:21:09.104Z,12.57
2022-11-16T23:24:24.945Z,13.17
2022-11-16T23:27:29.926Z,13.17
2022-11-16T23:30:17.544Z,14.00
2022-11-16T23:33:04.574Z,12.17
2022-11-16T23:35:51.593Z,13.30
2022-11-16T23:38:39.109Z,12.17
2022-11-16T23:41:44.679Z,13.23
2022-11-16T23:44:31.657Z,12.47
2022-11-16T23:47:18.608Z,11.97
2022-11-16T23:50:05.837Z,11.57
2022-11-16T23:52:52.837Z,11.97
2022-11-16T23:55:40.683Z,11.90
2022-11-16T23:58:27.768Z,11.33
